sensor_id;sensor_type;location;lat;lon;timestamp;P1;durP1;ratioP1;P2;durP2;ratioP2
41627;SDS011;27321;50.816;6.054;2022-10-20T00:00:21;6.80;;;5.27;;
41627;SDS011;27321;50.816;6.054;2022-10-20T00:03:22;8.93;;;5.65;;
41627;SDS011;27321;50.816;6.054;2022-10-20T00:06:28;7.73;;;5.67;;
41627;SDS011;27321;50.816;6.054;2022-10-20T00:09:31;7.57;;;5.67;;
41627;SDS011;27321;50.816;6.054;2022-10-20T00:12:32;7.47;;;6.37;;
41627;SDS011;27321;50.816;6.054;2022-10-20T00:38:38;8.80;;;6.50;;
41627;SDS011;27321;50.816;6.054;2022-10-20T00:41:39;8.53;;;6.57;;
41627;SDS011;27321;50.816;6.054;2022-10-20T00:44:51;8.50;;;7.15;;
41627;SDS011;27321;50.816;6.054;2022-10-20T00:48:03;10.27;;;7.43;;
41627;SDS011;27321;50.816;6.054;2022-10-20T00:51:27;10.27;;;7.57;;
41627;SDS011;27321;50.816;6.054;2022-10-20T00:54:30;9.40;;;7.40;;
41627;SDS011;27321;50.816;6.054;2022-10-20T00:57:31;10.45;;;7.32;;
41627;SDS011;27321;50.816;6.054;2022-10-20T01:00:32;9.88;;;7.82;;
41627;SDS011;27321;50.816;6.054;2022-10-20T01:03:35;9.43;;;7.32;;
41627;SDS011;27321;50.816;6.054;2022-10-20T01:06:44;9.02;;;6.90;;
41627;SDS011;27321;50.816;6.054;2022-10-20T01:09:45;9.55;;;7.47;;
41627;SDS011;27321;50.816;6.054;2022-10-20T01:12:58;9.00;;;7.15;;
41627;SDS011;27321;50.816;6.054;2022-10-20T01:23:45;9.43;;;7.63;;
41627;SDS011;27321;50.816;6.054;2022-10-20T01:27:20;10.83;;;7.57;;
41627;SDS011;27321;50.816;6.054;2022-10-20T01:30:31;10.17;;;7.07;;
41627;SDS011;27321;50.816;6.054;2022-10-20T01:37:18;8.57;;;6.80;;
41627;SDS011;27321;50.816;6.054;2022-10-20T01:40:31;9.90;;;6.97;;
41627;SDS011;27321;50.816;6.054;2022-10-20T01:43:40;10.03;;;7.63;;
41627;SDS011;27321;50.816;6.054;2022-10-20T01:46:45;10.40;;;8.20;;
41627;SDS011;27321;50.816;6.054;2022-10-20T01:49:46;13.18;;;8.48;;
41627;SDS011;27321;50.816;6.054;2022-10-20T01:52:48;9.17;;;6.53;;
41627;SDS011;27321;50.816;6.054;2022-10-20T01:55:55;8.97;;;6.47;;
41627;SDS011;27321;50.816;6.054;2022-10-20T01:59:17;7.43;;;5.93;;
41627;SDS011;27321;50.816;6.054;2022-10-20T02:06:40;7.77;;;5.90;;
41627;SDS011;27321;50.816;6.054;2022-10-20T02:09:53;7.63;;;5.83;;
41627;SDS011;27321;50.816;6.054;2022-10-20T02:13:12;9.67;;;5.80;;
41627;SDS011;27321;50.816;6.054;2022-10-20T02:16:23;6.90;;;5.70;;
41627;SDS011;27321;50.816;6.054;2022-10-20T02:22:49;6.40;;;5.37;;
41627;SDS011;27321;50.816;6.054;2022-10-20T02:25:51;7.22;;;5.43;;
41627;SDS011;27321;50.816;6.054;2022-10-20T02:28:55;8.50;;;5.37;;
41627;SDS011;27321;50.816;6.054;2022-10-20T02:32:00;6.83;;;5.60;;
41627;SDS011;27321;50.816;6.054;2022-10-20T02:35:02;7.57;;;5.30;;
41627;SDS011;27321;50.816;6.054;2022-10-20T02:38:10;7.77;;;5.63;;
41627;SDS011;27321;50.816;6.054;2022-10-20T02:41:11;8.07;;;6.13;;
41627;SDS011;27321;50.816;6.054;2022-10-20T02:44:12;8.17;;;5.93;;
41627;SDS011;27321;50.816;6.054;2022-10-20T02:47:13;10.87;;;6.60;;
41627;SDS011;27321;50.816;6.054;2022-10-20T02:50:14;8.50;;;6.70;;
41627;SDS011;27321;50.816;6.054;2022-10-20T02:53:16;10.53;;;7.53;;
41627;SDS011;27321;50.816;6.054;2022-10-20T02:56:17;9.70;;;6.90;;
41627;SDS011;27321;50.816;6.054;2022-10-20T02:59:18;10.25;;;7.68;;
41627;SDS011;27321;50.816;6.054;2022-10-20T03:02:19;10.97;;;7.43;;
41627;SDS011;27321;50.816;6.054;2022-10-20T03:05:20;11.38;;;8.52;;
41627;SDS011;27321;50.816;6.054;2022-10-20T03:08:21;14.35;;;9.65;;
41627;SDS011;27321;50.816;6.054;2022-10-20T03:11:22;17.00;;;9.50;;
41627;SDS011;27321;50.816;6.054;2022-10-20T03:14:23;11.27;;;8.50;;
41627;SDS011;27321;50.816;6.054;2022-10-20T03:17:24;11.80;;;8.60;;
41627;SDS011;27321;50.816;6.054;2022-10-20T03:20:25;12.93;;;9.30;;
41627;SDS011;27321;50.816;6.054;2022-10-20T03:23:26;11.55;;;8.73;;
41627;SDS011;27321;50.816;6.054;2022-10-20T03:26:27;14.37;;;8.40;;
41627;SDS011;27321;50.816;6.054;2022-10-20T03:29:28;9.32;;;7.53;;
41627;SDS011;27321;50.816;6.054;2022-10-20T03:32:28;12.80;;;8.50;;
41627;SDS011;27321;50.816;6.054;2022-10-20T03:35:29;12.50;;;9.23;;
41627;SDS011;27321;50.816;6.054;2022-10-20T03:38:30;11.03;;;9.17;;
41627;SDS011;27321;50.816;6.054;2022-10-20T03:41:31;13.18;;;8.93;;
41627;SDS011;27321;50.816;6.054;2022-10-20T03:44:32;11.77;;;9.27;;
41627;SDS011;27321;50.816;6.054;2022-10-20T03:47:33;10.88;;;8.10;;
41627;SDS011;27321;50.816;6.054;2022-10-20T03:50:36;10.05;;;7.68;;
41627;SDS011;27321;50.816;6.054;2022-10-20T03:53:41;12.27;;;8.10;;
41627;SDS011;27321;50.816;6.054;2022-10-20T03:56:43;14.68;;;9.43;;
41627;SDS011;27321;50.816;6.054;2022-10-20T03:59:44;13.13;;;9.60;;
41627;SDS011;27321;50.816;6.054;2022-10-20T04:02:45;11.10;;;8.30;;
41627;SDS011;27321;50.816;6.054;2022-10-20T04:05:46;13.00;;;9.23;;
41627;SDS011;27321;50.816;6.054;2022-10-20T04:08:47;13.90;;;9.23;;
41627;SDS011;27321;50.816;6.054;2022-10-20T04:11:48;14.37;;;9.87;;
41627;SDS011;27321;50.816;6.054;2022-10-20T04:14:49;13.85;;;9.23;;
41627;SDS011;27321;50.816;6.054;2022-10-20T04:17:50;12.32;;;8.88;;
41627;SDS011;27321;50.816;6.054;2022-10-20T04:20:51;12.20;;;9.17;;
41627;SDS011;27321;50.816;6.054;2022-10-20T04:23:52;9.67;;;8.17;;
41627;SDS011;27321;50.816;6.054;2022-10-20T04:26:52;12.23;;;8.90;;
41627;SDS011;27321;50.816;6.054;2022-10-20T04:29:53;13.30;;;8.73;;
41627;SDS011;27321;50.816;6.054;2022-10-20T04:32:54;14.53;;;9.10;;
41627;SDS011;27321;50.816;6.054;2022-10-20T04:35:59;11.93;;;8.67;;
41627;SDS011;27321;50.816;6.054;2022-10-20T04:39:04;12.40;;;8.27;;
41627;SDS011;27321;50.816;6.054;2022-10-20T04:42:06;13.47;;;9.63;;
41627;SDS011;27321;50.816;6.054;2022-10-20T04:45:07;10.20;;;7.70;;
41627;SDS011;27321;50.816;6.054;2022-10-20T04:48:08;12.27;;;8.90;;
41627;SDS011;27321;50.816;6.054;2022-10-20T04:51:10;11.77;;;8.30;;
41627;SDS011;27321;50.816;6.054;2022-10-20T04:54:15;9.83;;;7.97;;
41627;SDS011;27321;50.816;6.054;2022-10-20T04:57:16;10.57;;;7.67;;
41627;SDS011;27321;50.816;6.054;2022-10-20T05:00:17;9.95;;;7.43;;
41627;SDS011;27321;50.816;6.054;2022-10-20T05:03:18;10.77;;;7.43;;
41627;SDS011;27321;50.816;6.054;2022-10-20T05:06:20;8.85;;;7.20;;
41627;SDS011;27321;50.816;6.054;2022-10-20T05:09:26;9.73;;;7.70;;
41627;SDS011;27321;50.816;6.054;2022-10-20T05:12:28;8.73;;;6.88;;
41627;SDS011;27321;50.816;6.054;2022-10-20T05:15:29;9.23;;;6.97;;
41627;SDS011;27321;50.816;6.054;2022-10-20T05:18:30;9.77;;;7.43;;
41627;SDS011;27321;50.816;6.054;2022-10-20T05:21:33;12.40;;;8.47;;
41627;SDS011;27321;50.816;6.054;2022-10-20T05:24:35;12.53;;;8.53;;
41627;SDS011;27321;50.816;6.054;2022-10-20T05:27:36;12.63;;;9.00;;
41627;SDS011;27321;50.816;6.054;2022-10-20T05:30:37;9.27;;;7.73;;
41627;SDS011;27321;50.816;6.054;2022-10-20T05:33:38;10.30;;;7.57;;
41627;SDS011;27321;50.816;6.054;2022-10-20T05:36:44;13.20;;;7.27;;
41627;SDS011;27321;50.816;6.054;2022-10-20T05:39:45;9.33;;;7.17;;
41627;SDS011;27321;50.816;6.054;2022-10-20T05:42:46;9.90;;;7.65;;
41627;SDS011;27321;50.816;6.054;2022-10-20T05:45:52;10.30;;;7.25;;
41627;SDS011;27321;50.816;6.054;2022-10-20T05:48:55;8.83;;;6.87;;
41627;SDS011;27321;50.816;6.054;2022-10-20T05:51:59;7.97;;;6.67;;
41627;SDS011;27321;50.816;6.054;2022-10-20T05:54:59;9.17;;;7.37;;
41627;SDS011;27321;50.816;6.054;2022-10-20T05:58:01;11.18;;;8.48;;
41627;SDS011;27321;50.816;6.054;2022-10-20T06:01:15;10.67;;;8.13;;
41627;SDS011;27321;50.816;6.054;2022-10-20T06:04:23;9.43;;;7.57;;
41627;SDS011;27321;50.816;6.054;2022-10-20T06:07:24;9.13;;;7.63;;
41627;SDS011;27321;50.816;6.054;2022-10-20T06:10:25;13.98;;;9.63;;
41627;SDS011;27321;50.816;6.054;2022-10-20T06:13:26;10.25;;;8.45;;
41627;SDS011;27321;50.816;6.054;2022-10-20T06:16:27;11.20;;;8.90;;
41627;SDS011;27321;50.816;6.054;2022-10-20T06:19:28;12.43;;;7.90;;
41627;SDS011;27321;50.816;6.054;2022-10-20T06:22:30;10.88;;;8.80;;
41627;SDS011;27321;50.816;6.054;2022-10-20T06:25:31;9.50;;;8.07;;
41627;SDS011;27321;50.816;6.054;2022-10-20T06:28:33;8.93;;;7.40;;
41627;SDS011;27321;50.816;6.054;2022-10-20T06:31:37;8.63;;;6.43;;
41627;SDS011;27321;50.816;6.054;2022-10-20T06:34:41;9.50;;;7.03;;
41627;SDS011;27321;50.816;6.054;2022-10-20T06:37:42;8.03;;;6.77;;
41627;SDS011;27321;50.816;6.054;2022-10-20T06:40:43;9.23;;;7.23;;
41627;SDS011;27321;50.816;6.054;2022-10-20T06:43:44;9.63;;;6.90;;
41627;SDS011;27321;50.816;6.054;2022-10-20T06:46:45;7.95;;;6.55;;
41627;SDS011;27321;50.816;6.054;2022-10-20T06:49:49;8.68;;;6.43;;
41627;SDS011;27321;50.816;6.054;2022-10-20T06:52:50;7.43;;;5.87;;
41627;SDS011;27321;50.816;6.054;2022-10-20T06:55:55;10.77;;;7.53;;
41627;SDS011;27321;50.816;6.054;2022-10-20T06:59:05;9.33;;;7.60;;
41627;SDS011;27321;50.816;6.054;2022-10-20T07:02:08;10.52;;;7.88;;
41627;SDS011;27321;50.816;6.054;2022-10-20T07:05:11;10.13;;;7.63;;
41627;SDS011;27321;50.816;6.054;2022-10-20T07:08:12;12.53;;;7.17;;
41627;SDS011;27321;50.816;6.054;2022-10-20T07:11:13;11.63;;;7.47;;
41627;SDS011;27321;50.816;6.054;2022-10-20T07:14:18;12.05;;;8.07;;
41627;SDS011;27321;50.816;6.054;2022-10-20T07:17:19;10.10;;;7.82;;
41627;SDS011;27321;50.816;6.054;2022-10-20T07:20:20;9.02;;;7.18;;
41627;SDS011;27321;50.816;6.054;2022-10-20T07:23:21;10.27;;;7.85;;
41627;SDS011;27321;50.816;6.054;2022-10-20T07:26:22;7.30;;;6.47;;
41627;SDS011;27321;50.816;6.054;2022-10-20T07:29:26;10.05;;;7.53;;
41627;SDS011;27321;50.816;6.054;2022-10-20T07:32:27;9.38;;;7.13;;
41627;SDS011;27321;50.816;6.054;2022-10-20T07:35:28;8.40;;;6.50;;
41627;SDS011;27321;50.816;6.054;2022-10-20T07:41:30;8.35;;;6.55;;
41627;SDS011;27321;50.816;6.054;2022-10-20T07:44:32;7.18;;;6.07;;
41627;SDS011;27321;50.816;6.054;2022-10-20T07:47:33;8.60;;;6.82;;
41627;SDS011;27321;50.816;6.054;2022-10-20T07:50:35;11.27;;;8.07;;
41627;SDS011;27321;50.816;6.054;2022-10-20T07:53:36;8.75;;;7.30;;
41627;SDS011;27321;50.816;6.054;2022-10-20T07:56:38;9.13;;;7.30;;
41627;SDS011;27321;50.816;6.054;2022-10-20T07:59:41;9.02;;;6.97;;
41627;SDS011;27321;50.816;6.054;2022-10-20T08:02:42;8.00;;;6.25;;
41627;SDS011;27321;50.816;6.054;2022-10-20T08:05:46;9.40;;;6.80;;
41627;SDS011;27321;50.816;6.054;2022-10-20T08:08:47;9.45;;;7.32;;
41627;SDS011;27321;50.816;6.054;2022-10-20T08:11:48;8.70;;;6.77;;
41627;SDS011;27321;50.816;6.054;2022-10-20T08:14:50;9.65;;;7.18;;
41627;SDS011;27321;50.816;6.054;2022-10-20T08:17:51;9.32;;;7.68;;
41627;SDS011;27321;50.816;6.054;2022-10-20T08:20:52;9.15;;;7.85;;
41627;SDS011;27321;50.816;6.054;2022-10-20T08:23:53;12.20;;;8.07;;
41627;SDS011;27321;50.816;6.054;2022-10-20T08:26:54;12.73;;;8.93;;
41627;SDS011;27321;50.816;6.054;2022-10-20T08:29:55;11.10;;;8.20;;
41627;SDS011;27321;50.816;6.054;2022-10-20T08:32:56;10.00;;;8.20;;
41627;SDS011;27321;50.816;6.054;2022-10-20T08:36:04;10.33;;;8.10;;
41627;SDS011;27321;50.816;6.054;2022-10-20T08:39:08;10.70;;;8.10;;
41627;SDS011;27321;50.816;6.054;2022-10-20T08:42:09;9.23;;;7.35;;
41627;SDS011;27321;50.816;6.054;2022-10-20T08:45:15;9.82;;;6.88;;
41627;SDS011;27321;50.816;6.054;2022-10-20T08:48:21;10.93;;;8.27;;
41627;SDS011;27321;50.816;6.054;2022-10-20T08:51:32;12.63;;;9.10;;
41627;SDS011;27321;50.816;6.054;2022-10-20T08:54:37;12.82;;;9.25;;
41627;SDS011;27321;50.816;6.054;2022-10-20T08:57:38;13.05;;;8.63;;
41627;SDS011;27321;50.816;6.054;2022-10-20T09:00:40;11.80;;;8.85;;
41627;SDS011;27321;50.816;6.054;2022-10-20T09:03:42;12.30;;;9.20;;
41627;SDS011;27321;50.816;6.054;2022-10-20T09:06:43;11.10;;;8.05;;
41627;SDS011;27321;50.816;6.054;2022-10-20T09:09:48;9.65;;;6.80;;
41627;SDS011;27321;50.816;6.054;2022-10-20T09:12:49;9.60;;;6.57;;
41627;SDS011;27321;50.816;6.054;2022-10-20T09:15:54;9.38;;;6.82;;
41627;SDS011;27321;50.816;6.054;2022-10-20T09:18:59;8.80;;;6.95;;
41627;SDS011;27321;50.816;6.054;2022-10-20T09:22:05;8.95;;;6.97;;
41627;SDS011;27321;50.816;6.054;2022-10-20T09:25:08;8.70;;;7.30;;
41627;SDS011;27321;50.816;6.054;2022-10-20T09:28:23;9.43;;;6.88;;
41627;SDS011;27321;50.816;6.054;2022-10-20T09:31:30;7.93;;;6.45;;
41627;SDS011;27321;50.816;6.054;2022-10-20T09:34:35;8.02;;;6.13;;
41627;SDS011;27321;50.816;6.054;2022-10-20T09:37:35;8.65;;;6.35;;
41627;SDS011;27321;50.816;6.054;2022-10-20T09:40:43;7.93;;;6.18;;
41627;SDS011;27321;50.816;6.054;2022-10-20T09:44:14;7.03;;;5.65;;
41627;SDS011;27321;50.816;6.054;2022-10-20T09:47:23;7.80;;;6.38;;
41627;SDS011;27321;50.816;6.054;2022-10-20T09:53:39;6.95;;;5.93;;
41627;SDS011;27321;50.816;6.054;2022-10-20T09:56:54;7.57;;;5.72;;
41627;SDS011;27321;50.816;6.054;2022-10-20T10:00:20;8.60;;;6.43;;
41627;SDS011;27321;50.816;6.054;2022-10-20T10:03:23;9.35;;;5.80;;
41627;SDS011;27321;50.816;6.054;2022-10-20T10:06:38;5.95;;;4.97;;
41627;SDS011;27321;50.816;6.054;2022-10-20T10:09:49;10.60;;;6.22;;
41627;SDS011;27321;50.816;6.054;2022-10-20T10:13:03;6.35;;;5.68;;
41627;SDS011;27321;50.816;6.054;2022-10-20T10:16:12;7.82;;;5.43;;
41627;SDS011;27321;50.816;6.054;2022-10-20T10:19:24;8.83;;;5.10;;
41627;SDS011;27321;50.816;6.054;2022-10-20T10:22:34;7.03;;;5.28;;
41627;SDS011;27321;50.816;6.054;2022-10-20T10:25:35;11.15;;;6.57;;
41627;SDS011;27321;50.816;6.054;2022-10-20T10:28:37;7.55;;;6.03;;
41627;SDS011;27321;50.816;6.054;2022-10-20T10:31:45;7.70;;;6.20;;
41627;SDS011;27321;50.816;6.054;2022-10-20T10:38:04;7.20;;;5.50;;
41627;SDS011;27321;50.816;6.054;2022-10-20T10:48:41;9.40;;;6.38;;
41627;SDS011;27321;50.816;6.054;2022-10-20T10:52:25;12.27;;;7.05;;
41627;SDS011;27321;50.816;6.054;2022-10-20T11:09:15;6.50;;;5.28;;
41627;SDS011;27321;50.816;6.054;2022-10-20T11:12:34;6.75;;;5.60;;
41627;SDS011;27321;50.816;6.054;2022-10-20T11:16:06;6.07;;;5.25;;
41627;SDS011;27321;50.816;6.054;2022-10-20T11:19:42;7.30;;;5.53;;
41627;SDS011;27321;50.816;6.054;2022-10-20T11:26:35;6.95;;;5.63;;
41627;SDS011;27321;50.816;6.054;2022-10-20T11:29:50;7.53;;;5.20;;
41627;SDS011;27321;50.816;6.054;2022-10-20T11:33:12;6.53;;;4.82;;
41627;SDS011;27321;50.816;6.054;2022-10-20T11:36:22;6.32;;;4.97;;
41627;SDS011;27321;50.816;6.054;2022-10-20T11:39:40;6.47;;;4.70;;
41627;SDS011;27321;50.816;6.054;2022-10-20T11:43:00;5.38;;;4.22;;
41627;SDS011;27321;50.816;6.054;2022-10-20T11:46:40;4.97;;;4.40;;
41627;SDS011;27321;50.816;6.054;2022-10-20T11:49:55;5.85;;;5.00;;
41627;SDS011;27321;50.816;6.054;2022-10-20T11:53:02;5.65;;;3.97;;
41627;SDS011;27321;50.816;6.054;2022-10-20T12:04:56;5.32;;;3.28;;
41627;SDS011;27321;50.816;6.054;2022-10-20T12:08:28;3.90;;;3.42;;
41627;SDS011;27321;50.816;6.054;2022-10-20T12:12:12;4.78;;;3.40;;
41627;SDS011;27321;50.816;6.054;2022-10-20T12:15:48;3.85;;;3.45;;
41627;SDS011;27321;50.816;6.054;2022-10-20T12:19:05;3.95;;;3.20;;
41627;SDS011;27321;50.816;6.054;2022-10-20T12:28:38;4.05;;;3.65;;
41627;SDS011;27321;50.816;6.054;2022-10-20T12:48:01;3.40;;;3.10;;
41627;SDS011;27321;50.816;6.054;2022-10-20T12:51:07;3.75;;;3.40;;
41627;SDS011;27321;50.816;6.054;2022-10-20T12:57:39;3.63;;;2.95;;
41627;SDS011;27321;50.816;6.054;2022-10-20T13:03:46;4.65;;;3.10;;
41627;SDS011;27321;50.816;6.054;2022-10-20T13:06:48;6.90;;;3.00;;
41627;SDS011;27321;50.816;6.054;2022-10-20T13:09:55;3.67;;;2.85;;
41627;SDS011;27321;50.816;6.054;2022-10-20T13:16:03;5.78;;;3.05;;
41627;SDS011;27321;50.816;6.054;2022-10-20T13:19:15;5.35;;;2.97;;
41627;SDS011;27321;50.816;6.054;2022-10-20T13:25:53;2.67;;;2.45;;
41627;SDS011;27321;50.816;6.054;2022-10-20T13:28:59;4.90;;;2.95;;
41627;SDS011;27321;50.816;6.054;2022-10-20T13:35:19;4.82;;;2.88;;
41627;SDS011;27321;50.816;6.054;2022-10-20T13:38:50;5.18;;;2.72;;
41627;SDS011;27321;50.816;6.054;2022-10-20T13:52:58;4.82;;;2.80;;
41627;SDS011;27321;50.816;6.054;2022-10-20T13:59:21;4.57;;;3.00;;
41627;SDS011;27321;50.816;6.054;2022-10-20T14:02:31;5.70;;;2.47;;
41627;SDS011;27321;50.816;6.054;2022-10-20T14:05:36;7.50;;;3.00;;
41627;SDS011;27321;50.816;6.054;2022-10-20T14:08:42;5.80;;;2.78;;
41627;SDS011;27321;50.816;6.054;2022-10-20T14:12:05;2.90;;;2.60;;
41627;SDS011;27321;50.816;6.054;2022-10-20T14:15:16;3.45;;;2.33;;
41627;SDS011;27321;50.816;6.054;2022-10-20T14:18:26;6.47;;;2.70;;
41627;SDS011;27321;50.816;6.054;2022-10-20T14:21:38;3.58;;;2.50;;
41627;SDS011;27321;50.816;6.054;2022-10-20T14:24:45;4.60;;;2.50;;
41627;SDS011;27321;50.816;6.054;2022-10-20T14:27:49;5.13;;;2.60;;
41627;SDS011;27321;50.816;6.054;2022-10-20T14:30:55;4.05;;;2.42;;
41627;SDS011;27321;50.816;6.054;2022-10-20T14:33:58;3.42;;;2.33;;
41627;SDS011;27321;50.816;6.054;2022-10-20T14:36:59;4.93;;;2.85;;
41627;SDS011;27321;50.816;6.054;2022-10-20T14:40:01;3.97;;;2.42;;
41627;SDS011;27321;50.816;6.054;2022-10-20T14:43:39;3.10;;;2.35;;
41627;SDS011;27321;50.816;6.054;2022-10-20T14:49:57;2.83;;;2.20;;
41627;SDS011;27321;50.816;6.054;2022-10-20T14:56:33;5.03;;;2.80;;
41627;SDS011;27321;50.816;6.054;2022-10-20T15:03:07;4.03;;;2.42;;
41627;SDS011;27321;50.816;6.054;2022-10-20T15:06:11;5.10;;;2.53;;
41627;SDS011;27321;50.816;6.054;2022-10-20T15:09:23;6.03;;;2.45;;
41627;SDS011;27321;50.816;6.054;2022-10-20T15:12:37;3.60;;;2.53;;
41627;SDS011;27321;50.816;6.054;2022-10-20T15:15:49;4.97;;;2.45;;
41627;SDS011;27321;50.816;6.054;2022-10-20T15:19:09;5.35;;;2.47;;
41627;SDS011;27321;50.816;6.054;2022-10-20T15:22:34;6.10;;;2.40;;
41627;SDS011;27321;50.816;6.054;2022-10-20T15:29:04;7.00;;;2.65;;
41627;SDS011;27321;50.816;6.054;2022-10-20T15:32:07;4.88;;;2.72;;
41627;SDS011;27321;50.816;6.054;2022-10-20T15:38:18;4.03;;;2.75;;
41627;SDS011;27321;50.816;6.054;2022-10-20T15:41:20;3.53;;;2.67;;
41627;SDS011;27321;50.816;6.054;2022-10-20T15:44:27;4.10;;;2.92;;
41627;SDS011;27321;50.816;6.054;2022-10-20T15:47:28;4.95;;;3.28;;
41627;SDS011;27321;50.816;6.054;2022-10-20T15:50:29;5.43;;;3.03;;
41627;SDS011;27321;50.816;6.054;2022-10-20T15:53:37;3.80;;;2.42;;
41627;SDS011;27321;50.816;6.054;2022-10-20T15:56:39;4.32;;;3.25;;
41627;SDS011;27321;50.816;6.054;2022-10-20T15:59:41;4.57;;;2.85;;
41627;SDS011;27321;50.816;6.054;2022-10-20T16:02:42;5.88;;;3.33;;
41627;SDS011;27321;50.816;6.054;2022-10-20T16:05:47;4.75;;;3.10;;
41627;SDS011;27321;50.816;6.054;2022-10-20T16:08:49;4.15;;;3.22;;
41627;SDS011;27321;50.816;6.054;2022-10-20T16:11:52;5.22;;;3.75;;
41627;SDS011;27321;50.816;6.054;2022-10-20T16:14:53;4.47;;;3.78;;
41627;SDS011;27321;50.816;6.054;2022-10-20T16:17:55;4.53;;;3.08;;
41627;SDS011;27321;50.816;6.054;2022-10-20T16:20:56;9.75;;;3.65;;
41627;SDS011;27321;50.816;6.054;2022-10-20T16:23:58;6.25;;;3.53;;
41627;SDS011;27321;50.816;6.054;2022-10-20T16:27:06;4.82;;;3.42;;
41627;SDS011;27321;50.816;6.054;2022-10-20T16:30:07;6.68;;;4.00;;
41627;SDS011;27321;50.816;6.054;2022-10-20T16:33:09;4.82;;;4.18;;
41627;SDS011;27321;50.816;6.054;2022-10-20T16:36:11;6.47;;;3.50;;
41627;SDS011;27321;50.816;6.054;2022-10-20T16:39:15;5.57;;;3.50;;
41627;SDS011;27321;50.816;6.054;2022-10-20T16:42:17;5.55;;;3.38;;
41627;SDS011;27321;50.816;6.054;2022-10-20T16:45:19;5.07;;;3.22;;
41627;SDS011;27321;50.816;6.054;2022-10-20T16:48:22;3.70;;;3.28;;
41627;SDS011;27321;50.816;6.054;2022-10-20T16:51:29;4.50;;;3.20;;
41627;SDS011;27321;50.816;6.054;2022-10-20T16:54:31;4.93;;;3.42;;
41627;SDS011;27321;50.816;6.054;2022-10-20T16:57:36;5.18;;;3.50;;
41627;SDS011;27321;50.816;6.054;2022-10-20T17:00:38;6.25;;;3.97;;
41627;SDS011;27321;50.816;6.054;2022-10-20T17:06:44;8.23;;;3.70;;
41627;SDS011;27321;50.816;6.054;2022-10-20T17:09:48;4.38;;;3.35;;
41627;SDS011;27321;50.816;6.054;2022-10-20T17:12:49;6.80;;;3.95;;
41627;SDS011;27321;50.816;6.054;2022-10-20T17:15:50;7.25;;;3.65;;
41627;SDS011;27321;50.816;6.054;2022-10-20T17:18:52;5.53;;;3.38;;
41627;SDS011;27321;50.816;6.054;2022-10-20T17:22:01;4.60;;;3.28;;
41627;SDS011;27321;50.816;6.054;2022-10-20T17:25:03;6.07;;;3.83;;
41627;SDS011;27321;50.816;6.054;2022-10-20T17:28:05;6.78;;;3.70;;
41627;SDS011;27321;50.816;6.054;2022-10-20T17:31:07;5.07;;;4.10;;
41627;SDS011;27321;50.816;6.054;2022-10-20T17:34:11;5.40;;;3.95;;
41627;SDS011;27321;50.816;6.054;2022-10-20T17:37:16;5.38;;;3.80;;
41627;SDS011;27321;50.816;6.054;2022-10-20T17:40:20;5.22;;;3.60;;
41627;SDS011;27321;50.816;6.054;2022-10-20T17:43:22;7.82;;;3.58;;
41627;SDS011;27321;50.816;6.054;2022-10-20T17:46:26;7.13;;;3.85;;
41627;SDS011;27321;50.816;6.054;2022-10-20T17:49:28;4.53;;;3.70;;
41627;SDS011;27321;50.816;6.054;2022-10-20T17:52:32;6.10;;;3.78;;
41627;SDS011;27321;50.816;6.054;2022-10-20T17:55:33;5.78;;;4.20;;
41627;SDS011;27321;50.816;6.054;2022-10-20T17:58:38;5.57;;;4.07;;
41627;SDS011;27321;50.816;6.054;2022-10-20T18:01:53;4.85;;;3.88;;
41627;SDS011;27321;50.816;6.054;2022-10-20T18:05:00;8.40;;;4.50;;
41627;SDS011;27321;50.816;6.054;2022-10-20T18:08:17;4.35;;;3.30;;
41627;SDS011;27321;50.816;6.054;2022-10-20T18:11:22;5.43;;;4.18;;
41627;SDS011;27321;50.816;6.054;2022-10-20T18:14:28;7.85;;;4.03;;
41627;SDS011;27321;50.816;6.054;2022-10-20T18:17:45;5.20;;;3.95;;
41627;SDS011;27321;50.816;6.054;2022-10-20T18:20:55;6.50;;;3.33;;
41627;SDS011;27321;50.816;6.054;2022-10-20T18:24:00;9.95;;;3.90;;
41627;SDS011;27321;50.816;6.054;2022-10-20T18:27:05;6.18;;;3.20;;
41627;SDS011;27321;50.816;6.054;2022-10-20T18:30:06;9.18;;;3.67;;
41627;SDS011;27321;50.816;6.054;2022-10-20T18:33:08;7.30;;;2.97;;
41627;SDS011;27321;50.816;6.054;2022-10-20T18:36:09;7.53;;;3.45;;
41627;SDS011;27321;50.816;6.054;2022-10-20T18:39:16;4.05;;;3.05;;
41627;SDS011;27321;50.816;6.054;2022-10-20T18:42:20;5.50;;;2.97;;
41627;SDS011;27321;50.816;6.054;2022-10-20T18:45:21;4.95;;;3.35;;
41627;SDS011;27321;50.816;6.054;2022-10-20T18:48:22;6.85;;;3.50;;
41627;SDS011;27321;50.816;6.054;2022-10-20T18:51:23;6.18;;;3.30;;
41627;SDS011;27321;50.816;6.054;2022-10-20T18:54:24;6.07;;;3.72;;
41627;SDS011;27321;50.816;6.054;2022-10-20T18:57:25;5.45;;;3.47;;
41627;SDS011;27321;50.816;6.054;2022-10-20T19:00:26;8.27;;;3.70;;
41627;SDS011;27321;50.816;6.054;2022-10-20T19:03:27;8.68;;;3.85;;
41627;SDS011;27321;50.816;6.054;2022-10-20T19:06:34;6.53;;;4.03;;
41627;SDS011;27321;50.816;6.054;2022-10-20T19:09:46;7.10;;;3.97;;
41627;SDS011;27321;50.816;6.054;2022-10-20T19:12:47;6.47;;;4.35;;
41627;SDS011;27321;50.816;6.054;2022-10-20T19:15:51;6.03;;;4.43;;
41627;SDS011;27321;50.816;6.054;2022-10-20T19:19:01;8.50;;;4.55;;
41627;SDS011;27321;50.816;6.054;2022-10-20T19:22:05;7.03;;;4.75;;
41627;SDS011;27321;50.816;6.054;2022-10-20T19:25:06;7.68;;;4.90;;
41627;SDS011;27321;50.816;6.054;2022-10-20T19:28:07;5.47;;;4.35;;
41627;SDS011;27321;50.816;6.054;2022-10-20T19:31:23;8.30;;;4.38;;
41627;SDS011;27321;50.816;6.054;2022-10-20T19:34:37;11.10;;;4.70;;
41627;SDS011;27321;50.816;6.054;2022-10-20T19:37:39;8.90;;;5.45;;
41627;SDS011;27321;50.816;6.054;2022-10-20T19:40:40;8.18;;;5.28;;
41627;SDS011;27321;50.816;6.054;2022-10-20T19:43:42;9.73;;;5.45;;
41627;SDS011;27321;50.816;6.054;2022-10-20T19:46:44;7.38;;;5.38;;
41627;SDS011;27321;50.816;6.054;2022-10-20T19:49:47;9.93;;;5.30;;
41627;SDS011;27321;50.816;6.054;2022-10-20T19:52:48;9.40;;;5.00;;
41627;SDS011;27321;50.816;6.054;2022-10-20T19:55:50;6.82;;;5.20;;
41627;SDS011;27321;50.816;6.054;2022-10-20T19:58:52;8.48;;;5.70;;
41627;SDS011;27321;50.816;6.054;2022-10-20T20:01:53;8.98;;;5.18;;
41627;SDS011;27321;50.816;6.054;2022-10-20T20:04:54;7.55;;;5.53;;
41627;SDS011;27321;50.816;6.054;2022-10-20T20:07:56;6.80;;;4.95;;
41627;SDS011;27321;50.816;6.054;2022-10-20T20:10:57;7.57;;;5.00;;
41627;SDS011;27321;50.816;6.054;2022-10-20T20:14:04;7.10;;;4.50;;
41627;SDS011;27321;50.816;6.054;2022-10-20T20:17:10;6.15;;;4.88;;
41627;SDS011;27321;50.816;6.054;2022-10-20T20:20:11;6.70;;;4.85;;
41627;SDS011;27321;50.816;6.054;2022-10-20T20:23:12;8.15;;;4.55;;
41627;SDS011;27321;50.816;6.054;2022-10-20T20:26:15;6.80;;;4.43;;
41627;SDS011;27321;50.816;6.054;2022-10-20T20:29:16;8.82;;;4.32;;
41627;SDS011;27321;50.816;6.054;2022-10-20T20:32:18;7.68;;;4.20;;
41627;SDS011;27321;50.816;6.054;2022-10-20T20:35:19;9.63;;;4.70;;
41627;SDS011;27321;50.816;6.054;2022-10-20T20:38:20;5.43;;;4.50;;
41627;SDS011;27321;50.816;6.054;2022-10-20T20:41:21;7.72;;;4.53;;
41627;SDS011;27321;50.816;6.054;2022-10-20T20:44:25;5.00;;;4.50;;
41627;SDS011;27321;50.816;6.054;2022-10-20T20:47:30;6.65;;;4.65;;
41627;SDS011;27321;50.816;6.054;2022-10-20T20:50:32;7.43;;;4.22;;
41627;SDS011;27321;50.816;6.054;2022-10-20T20:53:35;5.80;;;4.13;;
41627;SDS011;27321;50.816;6.054;2022-10-20T20:56:38;6.35;;;3.80;;
41627;SDS011;27321;50.816;6.054;2022-10-20T20:59:41;5.93;;;3.63;;
41627;SDS011;27321;50.816;6.054;2022-10-20T21:02:42;6.68;;;3.90;;
41627;SDS011;27321;50.816;6.054;2022-10-20T21:05:44;6.32;;;4.28;;
41627;SDS011;27321;50.816;6.054;2022-10-20T21:08:46;6.07;;;4.20;;
41627;SDS011;27321;50.816;6.054;2022-10-20T21:11:48;7.05;;;4.15;;